sensor_id;sensor_type;location;lat;lon;timestamp;P1;durP1;ratioP1;P2;durP2;ratioP2
73642;SDS011;61938;48.652;9.292;2022-10-15T00:02:08;2.30;;;1.30;;
73642;SDS011;61938;48.652;9.292;2022-10-15T00:04:33;3.17;;;1.10;;
73642;SDS011;61938;48.652;9.292;2022-10-15T00:06:59;2.45;;;1.38;;
73642;SDS011;61938;48.652;9.292;2022-10-15T00:09:25;2.58;;;1.10;;
73642;SDS011;61938;48.652;9.292;2022-10-15T00:11:50;2.60;;;1.45;;
73642;SDS011;61938;48.652;9.292;2022-10-15T00:14:16;1.95;;;1.27;;
73642;SDS011;61938;48.652;9.292;2022-10-15T00:16:42;1.23;;;0.93;;
73642;SDS011;61938;48.652;9.292;2022-10-15T00:19:08;2.35;;;1.05;;
73642;SDS011;61938;48.652;9.292;2022-10-15T00:21:33;3.08;;;1.08;;
73642;SDS011;61938;48.652;9.292;2022-10-15T00:23:59;1.48;;;0.75;;
73642;SDS011;61938;48.652;9.292;2022-10-15T00:26:25;2.55;;;1.10;;
73642;SDS011;61938;48.652;9.292;2022-10-15T00:28:53;2.03;;;0.90;;
73642;SDS011;61938;48.652;9.292;2022-10-15T00:31:21;2.97;;;1.00;;
73642;SDS011;61938;48.652;9.292;2022-10-15T00:33:49;2.35;;;1.10;;
73642;SDS011;61938;48.652;9.292;2022-10-15T00:36:24;4.35;;;1.10;;
73642;SDS011;61938;48.652;9.292;2022-10-15T00:38:55;2.38;;;0.90;;
73642;SDS011;61938;48.652;9.292;2022-10-15T00:41:22;2.63;;;1.08;;
73642;SDS011;61938;48.652;9.292;2022-10-15T00:44:00;1.50;;;0.80;;
73642;SDS011;61938;48.652;9.292;2022-10-15T00:46:34;1.63;;;0.90;;
73642;SDS011;61938;48.652;9.292;2022-10-15T00:49:17;1.00;;;0.70;;
73642;SDS011;61938;48.652;9.292;2022-10-15T00:51:53;5.85;;;0.90;;
73642;SDS011;61938;48.652;9.292;2022-10-15T00:54:26;2.28;;;1.10;;
73642;SDS011;61938;48.652;9.292;2022-10-15T00:56:55;3.63;;;1.20;;
73642;SDS011;61938;48.652;9.292;2022-10-15T00:59:21;1.75;;;1.00;;
73642;SDS011;61938;48.652;9.292;2022-10-15T01:01:50;0.80;;;0.60;;
73642;SDS011;61938;48.652;9.292;2022-10-15T01:04:17;1.58;;;0.95;;
73642;SDS011;61938;48.652;9.292;2022-10-15T01:06:43;1.05;;;0.70;;
73642;SDS011;61938;48.652;9.292;2022-10-15T01:09:10;3.15;;;1.13;;
73642;SDS011;61938;48.652;9.292;2022-10-15T01:17:08;2.42;;;1.02;;
73642;SDS011;61938;48.652;9.292;2022-10-15T01:22:26;6.60;;;1.15;;
73642;SDS011;61938;48.652;9.292;2022-10-15T01:28:19;2.75;;;1.13;;
73642;SDS011;61938;48.652;9.292;2022-10-15T01:31:35;1.75;;;0.88;;
73642;SDS011;61938;48.652;9.292;2022-10-15T01:34:13;2.65;;;1.00;;
73642;SDS011;61938;48.652;9.292;2022-10-15T01:36:57;1.55;;;0.90;;
73642;SDS011;61938;48.652;9.292;2022-10-15T01:39:32;1.70;;;0.93;;
73642;SDS011;61938;48.652;9.292;2022-10-15T01:42:05;2.38;;;0.93;;
73642;SDS011;61938;48.652;9.292;2022-10-15T01:45:18;2.35;;;0.90;;
73642;SDS011;61938;48.652;9.292;2022-10-15T01:47:42;0.98;;;0.70;;
73642;SDS011;61938;48.652;9.292;2022-10-15T01:50:12;0.80;;;0.50;;
73642;SDS011;61938;48.652;9.292;2022-10-15T01:52:40;1.17;;;0.45;;
73642;SDS011;61938;48.652;9.292;2022-10-15T01:55:09;1.42;;;0.70;;
73642;SDS011;61938;48.652;9.292;2022-10-15T01:57:38;0.32;;;0.30;;
73642;SDS011;61938;48.652;9.292;2022-10-15T02:00:07;0.95;;;0.50;;
73642;SDS011;61938;48.652;9.292;2022-10-15T02:02:33;0.50;;;0.40;;
73642;SDS011;61938;48.652;9.292;2022-10-15T02:04:59;0.93;;;0.52;;
73642;SDS011;61938;48.652;9.292;2022-10-15T02:07:31;1.30;;;0.50;;
73642;SDS011;61938;48.652;9.292;2022-10-15T02:10:23;0.50;;;0.30;;
73642;SDS011;61938;48.652;9.292;2022-10-15T02:13:03;2.40;;;0.52;;
73642;SDS011;61938;48.652;9.292;2022-10-15T02:16:03;1.67;;;0.40;;
73642;SDS011;61938;48.652;9.292;2022-10-15T02:18:38;0.82;;;0.40;;
73642;SDS011;61938;48.652;9.292;2022-10-15T02:21:29;1.83;;;0.50;;
73642;SDS011;61938;48.652;9.292;2022-10-15T02:24:08;0.88;;;0.50;;
73642;SDS011;61938;48.652;9.292;2022-10-15T02:26:43;2.65;;;0.52;;
73642;SDS011;61938;48.652;9.292;2022-10-15T02:29:10;1.40;;;0.70;;
73642;SDS011;61938;48.652;9.292;2022-10-15T02:31:40;1.35;;;0.52;;
73642;SDS011;61938;48.652;9.292;2022-10-15T02:34:08;1.05;;;0.40;;
73642;SDS011;61938;48.652;9.292;2022-10-15T02:36:40;0.95;;;0.43;;
73642;SDS011;61938;48.652;9.292;2022-10-15T02:39:07;0.40;;;0.28;;
73642;SDS011;61938;48.652;9.292;2022-10-15T02:41:36;2.95;;;0.45;;
73642;SDS011;61938;48.652;9.292;2022-10-15T02:44:03;3.17;;;0.20;;
73642;SDS011;61938;48.652;9.292;2022-10-15T02:46:29;3.38;;;0.30;;
73642;SDS011;61938;48.652;9.292;2022-10-15T02:48:54;0.50;;;0.30;;
73642;SDS011;61938;48.652;9.292;2022-10-15T02:51:20;2.28;;;0.45;;
73642;SDS011;61938;48.652;9.292;2022-10-15T02:53:45;2.08;;;0.32;;
73642;SDS011;61938;48.652;9.292;2022-10-15T02:56:11;3.58;;;0.25;;
73642;SDS011;61938;48.652;9.292;2022-10-15T02:58:36;0.45;;;0.20;;
73642;SDS011;61938;48.652;9.292;2022-10-15T03:01:02;1.40;;;0.30;;
73642;SDS011;61938;48.652;9.292;2022-10-15T03:03:28;3.72;;;0.20;;
73642;SDS011;61938;48.652;9.292;2022-10-15T03:05:54;0.55;;;0.20;;
73642;SDS011;61938;48.652;9.292;2022-10-15T03:08:19;1.55;;;0.30;;
73642;SDS011;61938;48.652;9.292;2022-10-15T03:10:45;2.53;;;0.30;;
73642;SDS011;61938;48.652;9.292;2022-10-15T03:13:11;2.00;;;0.43;;
73642;SDS011;61938;48.652;9.292;2022-10-15T03:15:36;0.80;;;0.20;;
73642;SDS011;61938;48.652;9.292;2022-10-15T03:18:02;0.13;;;0.13;;
73642;SDS011;61938;48.652;9.292;2022-10-15T03:20:29;0.20;;;0.20;;
73642;SDS011;61938;48.652;9.292;2022-10-15T03:22:54;0.10;;;0.10;;
73642;SDS011;61938;48.652;9.292;2022-10-15T03:25:20;0.35;;;0.30;;
73642;SDS011;61938;48.652;9.292;2022-10-15T03:27:46;0.65;;;0.25;;
73642;SDS011;61938;48.652;9.292;2022-10-15T03:30:12;0.38;;;0.38;;
73642;SDS011;61938;48.652;9.292;2022-10-15T03:32:38;0.88;;;0.20;;
73642;SDS011;61938;48.652;9.292;2022-10-15T03:35:03;0.30;;;0.20;;
73642;SDS011;61938;48.652;9.292;2022-10-15T03:37:29;0.10;;;0.10;;
73642;SDS011;61938;48.652;9.292;2022-10-15T03:39:55;0.63;;;0.30;;
73642;SDS011;61938;48.652;9.292;2022-10-15T03:42:20;0.57;;;0.22;;
73642;SDS011;61938;48.652;9.292;2022-10-15T03:44:46;0.30;;;0.20;;
73642;SDS011;61938;48.652;9.292;2022-10-15T03:47:12;0.20;;;0.20;;
73642;SDS011;61938;48.652;9.292;2022-10-15T03:49:37;0.85;;;0.20;;
73642;SDS011;61938;48.652;9.292;2022-10-15T03:52:03;2.58;;;0.32;;
73642;SDS011;61938;48.652;9.292;2022-10-15T03:54:28;2.70;;;0.30;;
73642;SDS011;61938;48.652;9.292;2022-10-15T03:56:54;0.50;;;0.20;;
73642;SDS011;61938;48.652;9.292;2022-10-15T03:59:20;0.55;;;0.20;;
73642;SDS011;61938;48.652;9.292;2022-10-15T04:01:46;1.40;;;0.28;;
73642;SDS011;61938;48.652;9.292;2022-10-15T04:04:11;0.22;;;0.20;;
73642;SDS011;61938;48.652;9.292;2022-10-15T04:06:37;0.73;;;0.20;;
73642;SDS011;61938;48.652;9.292;2022-10-15T04:09:03;0.77;;;0.30;;
73642;SDS011;61938;48.652;9.292;2022-10-15T04:11:29;7.43;;;0.30;;
73642;SDS011;61938;48.652;9.292;2022-10-15T04:13:54;4.28;;;0.30;;
73642;SDS011;61938;48.652;9.292;2022-10-15T04:16:20;0.57;;;0.30;;
73642;SDS011;61938;48.652;9.292;2022-10-15T04:18:45;0.20;;;0.20;;
73642;SDS011;61938;48.652;9.292;2022-10-15T04:21:11;0.20;;;0.20;;
73642;SDS011;61938;48.652;9.292;2022-10-15T04:23:37;2.75;;;0.30;;
73642;SDS011;61938;48.652;9.292;2022-10-15T04:26:03;8.27;;;0.40;;
73642;SDS011;61938;48.652;9.292;2022-10-15T04:28:30;1.08;;;0.30;;
73642;SDS011;61938;48.652;9.292;2022-10-15T04:30:57;0.73;;;0.52;;
73642;SDS011;61938;48.652;9.292;2022-10-15T04:33:24;1.55;;;0.30;;
73642;SDS011;61938;48.652;9.292;2022-10-15T04:35:57;1.33;;;0.50;;
73642;SDS011;61938;48.652;9.292;2022-10-15T04:38:28;0.77;;;0.40;;
73642;SDS011;61938;48.652;9.292;2022-10-15T04:40:58;0.80;;;0.50;;
73642;SDS011;61938;48.652;9.292;2022-10-15T04:43:24;1.58;;;0.52;;
73642;SDS011;61938;48.652;9.292;2022-10-15T04:45:50;1.60;;;0.80;;
73642;SDS011;61938;48.652;9.292;2022-10-15T04:48:15;5.68;;;0.40;;
73642;SDS011;61938;48.652;9.292;2022-10-15T04:50:41;1.88;;;0.70;;
73642;SDS011;61938;48.652;9.292;2022-10-15T04:53:06;0.65;;;0.45;;
73642;SDS011;61938;48.652;9.292;2022-10-15T04:55:32;1.48;;;0.50;;
73642;SDS011;61938;48.652;9.292;2022-10-15T04:57:57;1.20;;;0.50;;
73642;SDS011;61938;48.652;9.292;2022-10-15T05:00:23;0.55;;;0.40;;
73642;SDS011;61938;48.652;9.292;2022-10-15T05:02:48;9.30;;;0.50;;
73642;SDS011;61938;48.652;9.292;2022-10-15T05:05:14;0.40;;;0.30;;
73642;SDS011;61938;48.652;9.292;2022-10-15T05:07:39;0.63;;;0.30;;
73642;SDS011;61938;48.652;9.292;2022-10-15T05:10:05;0.80;;;0.50;;
73642;SDS011;61938;48.652;9.292;2022-10-15T05:12:31;0.30;;;0.30;;
73642;SDS011;61938;48.652;9.292;2022-10-15T05:14:57;0.57;;;0.40;;
73642;SDS011;61938;48.652;9.292;2022-10-15T05:17:22;2.13;;;0.47;;
73642;SDS011;61938;48.652;9.292;2022-10-15T05:19:48;0.82;;;0.40;;
73642;SDS011;61938;48.652;9.292;2022-10-15T05:22:13;1.25;;;0.40;;
73642;SDS011;61938;48.652;9.292;2022-10-15T05:24:39;4.07;;;0.40;;
73642;SDS011;61938;48.652;9.292;2022-10-15T05:27:04;1.33;;;0.47;;
73642;SDS011;61938;48.652;9.292;2022-10-15T05:29:30;1.02;;;0.30;;
73642;SDS011;61938;48.652;9.292;2022-10-15T05:31:55;1.95;;;0.30;;
73642;SDS011;61938;48.652;9.292;2022-10-15T05:34:21;0.30;;;0.30;;
73642;SDS011;61938;48.652;9.292;2022-10-15T05:36:49;3.00;;;0.80;;
73642;SDS011;61938;48.652;9.292;2022-10-15T05:39:14;0.57;;;0.40;;
73642;SDS011;61938;48.652;9.292;2022-10-15T05:41:40;2.33;;;0.30;;
73642;SDS011;61938;48.652;9.292;2022-10-15T05:44:05;0.40;;;0.32;;
73642;SDS011;61938;48.652;9.292;2022-10-15T05:46:31;0.50;;;0.30;;
73642;SDS011;61938;48.652;9.292;2022-10-15T05:48:57;1.08;;;0.52;;
73642;SDS011;61938;48.652;9.292;2022-10-15T05:51:23;6.13;;;0.60;;
73642;SDS011;61938;48.652;9.292;2022-10-15T05:53:51;7.18;;;1.15;;
73642;SDS011;61938;48.652;9.292;2022-10-15T05:56:18;3.40;;;0.68;;
73642;SDS011;61938;48.652;9.292;2022-10-15T05:58:43;0.47;;;0.40;;
73642;SDS011;61938;48.652;9.292;2022-10-15T06:01:10;0.60;;;0.35;;
73642;SDS011;61938;48.652;9.292;2022-10-15T06:03:36;0.60;;;0.30;;
73642;SDS011;61938;48.652;9.292;2022-10-15T06:06:03;3.35;;;0.80;;
73642;SDS011;61938;48.652;9.292;2022-10-15T06:08:29;4.88;;;0.45;;
73642;SDS011;61938;48.652;9.292;2022-10-15T06:10:55;1.15;;;0.40;;
73642;SDS011;61938;48.652;9.292;2022-10-15T06:13:25;1.05;;;0.50;;
73642;SDS011;61938;48.652;9.292;2022-10-15T06:15:51;2.83;;;0.47;;
73642;SDS011;61938;48.652;9.292;2022-10-15T06:18:16;1.15;;;0.68;;
73642;SDS011;61938;48.652;9.292;2022-10-15T06:20:42;2.10;;;0.63;;
73642;SDS011;61938;48.652;9.292;2022-10-15T06:23:08;1.42;;;0.57;;
73642;SDS011;61938;48.652;9.292;2022-10-15T06:25:35;6.30;;;0.63;;
73642;SDS011;61938;48.652;9.292;2022-10-15T06:28:02;1.67;;;0.70;;
73642;SDS011;61938;48.652;9.292;2022-10-15T06:30:28;1.48;;;0.52;;
73642;SDS011;61938;48.652;9.292;2022-10-15T06:32:54;0.88;;;0.50;;
73642;SDS011;61938;48.652;9.292;2022-10-15T06:35:20;2.65;;;0.60;;
73642;SDS011;61938;48.652;9.292;2022-10-15T06:37:48;3.80;;;0.63;;
73642;SDS011;61938;48.652;9.292;2022-10-15T06:40:14;1.40;;;0.60;;
73642;SDS011;61938;48.652;9.292;2022-10-15T06:42:39;1.05;;;0.60;;
73642;SDS011;61938;48.652;9.292;2022-10-15T06:45:05;4.88;;;0.88;;
73642;SDS011;61938;48.652;9.292;2022-10-15T06:47:31;1.25;;;0.77;;
73642;SDS011;61938;48.652;9.292;2022-10-15T06:49:57;7.10;;;0.90;;
73642;SDS011;61938;48.652;9.292;2022-10-15T06:52:24;1.75;;;0.65;;
73642;SDS011;61938;48.652;9.292;2022-10-15T06:54:50;2.65;;;0.82;;
73642;SDS011;61938;48.652;9.292;2022-10-15T06:57:15;1.48;;;0.60;;
73642;SDS011;61938;48.652;9.292;2022-10-15T06:59:41;1.48;;;0.50;;
73642;SDS011;61938;48.652;9.292;2022-10-15T07:02:10;2.13;;;0.75;;
73642;SDS011;61938;48.652;9.292;2022-10-15T07:04:37;2.50;;;1.00;;
73642;SDS011;61938;48.652;9.292;2022-10-15T07:07:03;7.65;;;0.80;;
73642;SDS011;61938;48.652;9.292;2022-10-15T07:09:29;1.75;;;0.80;;
73642;SDS011;61938;48.652;9.292;2022-10-15T07:11:54;1.45;;;0.80;;
73642;SDS011;61938;48.652;9.292;2022-10-15T07:14:20;1.38;;;0.70;;
73642;SDS011;61938;48.652;9.292;2022-10-15T07:16:45;5.55;;;0.93;;
73642;SDS011;61938;48.652;9.292;2022-10-15T07:19:11;2.83;;;0.70;;
73642;SDS011;61938;48.652;9.292;2022-10-15T07:21:36;3.10;;;0.90;;
73642;SDS011;61938;48.652;9.292;2022-10-15T07:24:02;4.40;;;0.90;;
73642;SDS011;61938;48.652;9.292;2022-10-15T07:26:28;2.55;;;1.00;;
73642;SDS011;61938;48.652;9.292;2022-10-15T07:28:54;2.45;;;1.23;;
73642;SDS011;61938;48.652;9.292;2022-10-15T07:31:20;2.42;;;0.80;;
73642;SDS011;61938;48.652;9.292;2022-10-15T07:33:46;1.80;;;0.60;;
73642;SDS011;61938;48.652;9.292;2022-10-15T07:36:12;2.03;;;1.08;;
73642;SDS011;61938;48.652;9.292;2022-10-15T07:38:37;2.05;;;0.80;;
73642;SDS011;61938;48.652;9.292;2022-10-15T07:41:04;1.90;;;0.90;;
73642;SDS011;61938;48.652;9.292;2022-10-15T07:43:31;2.10;;;0.70;;
73642;SDS011;61938;48.652;9.292;2022-10-15T07:45:57;3.83;;;0.77;;
73642;SDS011;61938;48.652;9.292;2022-10-15T07:48:23;3.78;;;2.08;;
73642;SDS011;61938;48.652;9.292;2022-10-15T07:50:55;4.07;;;2.05;;
73642;SDS011;61938;48.652;9.292;2022-10-15T07:53:22;1.65;;;1.20;;
73642;SDS011;61938;48.652;9.292;2022-10-15T07:55:48;1.63;;;1.17;;
73642;SDS011;61938;48.652;9.292;2022-10-15T07:58:13;1.52;;;1.20;;
73642;SDS011;61938;48.652;9.292;2022-10-15T08:00:39;1.38;;;0.95;;
73642;SDS011;61938;48.652;9.292;2022-10-15T08:03:05;1.10;;;0.80;;
73642;SDS011;61938;48.652;9.292;2022-10-15T08:05:30;1.23;;;0.70;;
73642;SDS011;61938;48.652;9.292;2022-10-15T08:07:57;1.48;;;0.82;;
73642;SDS011;61938;48.652;9.292;2022-10-15T08:10:22;4.47;;;1.05;;
73642;SDS011;61938;48.652;9.292;2022-10-15T08:12:48;2.17;;;1.00;;
73642;SDS011;61938;48.652;9.292;2022-10-15T08:15:13;1.17;;;0.80;;
73642;SDS011;61938;48.652;9.292;2022-10-15T08:17:39;4.10;;;2.13;;
73642;SDS011;61938;48.652;9.292;2022-10-15T08:20:05;4.60;;;1.38;;
73642;SDS011;61938;48.652;9.292;2022-10-15T08:22:31;6.15;;;2.80;;
73642;SDS011;61938;48.652;9.292;2022-10-15T08:24:58;7.65;;;3.20;;
73642;SDS011;61938;48.652;9.292;2022-10-15T08:27:23;3.53;;;1.45;;
73642;SDS011;61938;48.652;9.292;2022-10-15T08:29:49;3.25;;;0.90;;
73642;SDS011;61938;48.652;9.292;2022-10-15T08:32:15;1.58;;;1.17;;
73642;SDS011;61938;48.652;9.292;2022-10-15T08:34:40;3.08;;;1.10;;
73642;SDS011;61938;48.652;9.292;2022-10-15T08:37:06;3.45;;;1.30;;
73642;SDS011;61938;48.652;9.292;2022-10-15T08:39:32;2.65;;;1.88;;
73642;SDS011;61938;48.652;9.292;2022-10-15T08:42:01;2.85;;;1.67;;
73642;SDS011;61938;48.652;9.292;2022-10-15T08:44:31;2.97;;;1.88;;
73642;SDS011;61938;48.652;9.292;2022-10-15T08:47:49;1.42;;;1.02;;
73642;SDS011;61938;48.652;9.292;2022-10-15T08:50:31;5.95;;;3.42;;
73642;SDS011;61938;48.652;9.292;2022-10-15T08:55:34;3.08;;;1.88;;
73642;SDS011;61938;48.652;9.292;2022-10-15T09:00:51;18.42;;;7.90;;
73642;SDS011;61938;48.652;9.292;2022-10-15T09:03:54;12.07;;;6.78;;
73642;SDS011;61938;48.652;9.292;2022-10-15T09:06:28;8.30;;;3.75;;
73642;SDS011;61938;48.652;9.292;2022-10-15T09:09:01;4.38;;;2.35;;
73642;SDS011;61938;48.652;9.292;2022-10-15T09:14:19;2.13;;;1.10;;
73642;SDS011;61938;48.652;9.292;2022-10-15T09:16:50;4.55;;;2.40;;
73642;SDS011;61938;48.652;9.292;2022-10-15T09:19:17;0.88;;;0.60;;
73642;SDS011;61938;48.652;9.292;2022-10-15T09:21:48;3.53;;;2.00;;
73642;SDS011;61938;48.652;9.292;2022-10-15T09:24:22;2.33;;;1.40;;
73642;SDS011;61938;48.652;9.292;2022-10-15T09:26:59;2.53;;;1.20;;
73642;SDS011;61938;48.652;9.292;2022-10-15T09:29:45;2.22;;;1.33;;
73642;SDS011;61938;48.652;9.292;2022-10-15T09:37:13;5.18;;;0.93;;
73642;SDS011;61938;48.652;9.292;2022-10-15T09:40:02;1.48;;;1.08;;
73642;SDS011;61938;48.652;9.292;2022-10-15T09:42:38;3.40;;;1.73;;
73642;SDS011;61938;48.652;9.292;2022-10-15T09:45:09;3.45;;;1.52;;
73642;SDS011;61938;48.652;9.292;2022-10-15T09:47:38;6.43;;;1.00;;
73642;SDS011;61938;48.652;9.292;2022-10-15T09:50:07;1.70;;;0.93;;
73642;SDS011;61938;48.652;9.292;2022-10-15T09:52:51;3.00;;;0.82;;
73642;SDS011;61938;48.652;9.292;2022-10-15T09:55:35;4.68;;;1.75;;
73642;SDS011;61938;48.652;9.292;2022-10-15T09:58:20;5.75;;;1.42;;
73642;SDS011;61938;48.652;9.292;2022-10-15T10:00:51;16.58;;;7.22;;
73642;SDS011;61938;48.652;9.292;2022-10-15T10:03:29;2.17;;;1.35;;
73642;SDS011;61938;48.652;9.292;2022-10-15T10:06:00;9.40;;;5.10;;
73642;SDS011;61938;48.652;9.292;2022-10-15T10:08:30;3.00;;;1.30;;
73642;SDS011;61938;48.652;9.292;2022-10-15T10:11:03;3.63;;;0.90;;
73642;SDS011;61938;48.652;9.292;2022-10-15T10:13:35;1.13;;;0.55;;
73642;SDS011;61938;48.652;9.292;2022-10-15T10:16:10;16.58;;;1.02;;
73642;SDS011;61938;48.652;9.292;2022-10-15T10:18:38;4.32;;;0.80;;
73642;SDS011;61938;48.652;9.292;2022-10-15T10:21:05;1.95;;;0.90;;
73642;SDS011;61938;48.652;9.292;2022-10-15T10:23:45;1.70;;;0.60;;
73642;SDS011;61938;48.652;9.292;2022-10-15T10:26:11;6.10;;;3.25;;
73642;SDS011;61938;48.652;9.292;2022-10-15T10:28:45;1.55;;;0.90;;
73642;SDS011;61938;48.652;9.292;2022-10-15T10:31:25;2.67;;;1.58;;
73642;SDS011;61938;48.652;9.292;2022-10-15T10:33:53;3.50;;;2.08;;
73642;SDS011;61938;48.652;9.292;2022-10-15T10:36:20;3.35;;;2.00;;
73642;SDS011;61938;48.652;9.292;2022-10-15T10:38:59;3.15;;;1.92;;
73642;SDS011;61938;48.652;9.292;2022-10-15T10:41:53;1.75;;;1.00;;
73642;SDS011;61938;48.652;9.292;2022-10-15T10:44:22;2.45;;;0.80;;
73642;SDS011;61938;48.652;9.292;2022-10-15T10:52:31;2.05;;;0.90;;
73642;SDS011;61938;48.652;9.292;2022-10-15T10:57:39;5.38;;;1.00;;
73642;SDS011;61938;48.652;9.292;2022-10-15T11:00:10;4.28;;;0.73;;
73642;SDS011;61938;48.652;9.292;2022-10-15T11:02:41;8.65;;;1.27;;
73642;SDS011;61938;48.652;9.292;2022-10-15T11:05:08;13.75;;;1.35;;
73642;SDS011;61938;48.652;9.292;2022-10-15T11:07:38;1.63;;;1.08;;
73642;SDS011;61938;48.652;9.292;2022-10-15T11:16:13;7.57;;;1.00;;
73642;SDS011;61938;48.652;9.292;2022-10-15T11:18:58;1.55;;;0.77;;
73642;SDS011;61938;48.652;9.292;2022-10-15T11:24:46;6.47;;;1.13;;
73642;SDS011;61938;48.652;9.292;2022-10-15T11:27:26;3.75;;;0.80;;
73642;SDS011;61938;48.652;9.292;2022-10-15T11:33:12;2.53;;;1.70;;
73642;SDS011;61938;48.652;9.292;2022-10-15T11:35:42;3.97;;;0.90;;
73642;SDS011;61938;48.652;9.292;2022-10-15T11:38:43;1.45;;;0.80;;
73642;SDS011;61938;48.652;9.292;2022-10-15T11:41:36;3.55;;;1.20;;
73642;SDS011;61938;48.652;9.292;2022-10-15T11:44:31;2.97;;;0.90;;
73642;SDS011;61938;48.652;9.292;2022-10-15T11:49:40;4.30;;;0.77;;
73642;SDS011;61938;48.652;9.292;2022-10-15T11:57:58;15.60;;;6.13;;
73642;SDS011;61938;48.652;9.292;2022-10-15T12:00:36;12.93;;;5.32;;
73642;SDS011;61938;48.652;9.292;2022-10-15T12:03:11;7.07;;;4.35;;
73642;SDS011;61938;48.652;9.292;2022-10-15T12:05:43;5.30;;;2.47;;
73642;SDS011;61938;48.652;9.292;2022-10-15T12:08:14;6.13;;;1.50;;
73642;SDS011;61938;48.652;9.292;2022-10-15T12:13:17;4.07;;;1.00;;
73642;SDS011;61938;48.652;9.292;2022-10-15T12:21:40;6.35;;;2.47;;
73642;SDS011;61938;48.652;9.292;2022-10-15T12:29:44;5.97;;;1.55;;
73642;SDS011;61938;48.652;9.292;2022-10-15T12:32:21;0.88;;;0.52;;
73642;SDS011;61938;48.652;9.292;2022-10-15T12:34:53;6.63;;;1.42;;
73642;SDS011;61938;48.652;9.292;2022-10-15T12:37:21;1.73;;;0.70;;
73642;SDS011;61938;48.652;9.292;2022-10-15T12:39:53;5.75;;;1.05;;
73642;SDS011;61938;48.652;9.292;2022-10-15T12:44:51;2.58;;;0.85;;
73642;SDS011;61938;48.652;9.292;2022-10-15T12:52:56;2.92;;;0.80;;
73642;SDS011;61938;48.652;9.292;2022-10-15T12:55:33;2.97;;;0.60;;
73642;SDS011;61938;48.652;9.292;2022-10-15T12:58:01;2.35;;;0.90;;
73642;SDS011;61938;48.652;9.292;2022-10-15T13:00:46;8.32;;;2.67;;
73642;SDS011;61938;48.652;9.292;2022-10-15T13:03:16;3.58;;;1.80;;
73642;SDS011;61938;48.652;9.292;2022-10-15T13:05:49;4.57;;;1.25;;
73642;SDS011;61938;48.652;9.292;2022-10-15T13:08:20;5.38;;;2.30;;
73642;SDS011;61938;48.652;9.292;2022-10-15T13:10:51;2.15;;;1.30;;
73642;SDS011;61938;48.652;9.292;2022-10-15T13:13:23;3.45;;;1.10;;
73642;SDS011;61938;48.652;9.292;2022-10-15T13:15:59;2.13;;;0.90;;
73642;SDS011;61938;48.652;9.292;2022-10-15T13:18:36;12.25;;;0.82;;
73642;SDS011;61938;48.652;9.292;2022-10-15T13:21:03;1.65;;;0.80;;
73642;SDS011;61938;48.652;9.292;2022-10-15T13:23:29;3.70;;;1.42;;
73642;SDS011;61938;48.652;9.292;2022-10-15T13:26:14;9.10;;;3.40;;
73642;SDS011;61938;48.652;9.292;2022-10-15T13:28:40;11.20;;;5.20;;
73642;SDS011;61938;48.652;9.292;2022-10-15T13:31:20;5.15;;;2.58;;
73642;SDS011;61938;48.652;9.292;2022-10-15T13:33:49;6.82;;;3.53;;
73642;SDS011;61938;48.652;9.292;2022-10-15T13:36:20;1.70;;;0.88;;
73642;SDS011;61938;48.652;9.292;2022-10-15T13:38:57;3.67;;;1.35;;
73642;SDS011;61938;48.652;9.292;2022-10-15T13:41:29;1.67;;;0.60;;
73642;SDS011;61938;48.652;9.292;2022-10-15T13:43:58;5.47;;;1.10;;
73642;SDS011;61938;48.652;9.292;2022-10-15T13:46:29;2.67;;;1.42;;
73642;SDS011;61938;48.652;9.292;2022-10-15T13:48:58;0.82;;;0.63;;
73642;SDS011;61938;48.652;9.292;2022-10-15T13:51:26;2.63;;;1.15;;
73642;SDS011;61938;48.652;9.292;2022-10-15T13:54:06;4.30;;;2.78;;
73642;SDS011;61938;48.652;9.292;2022-10-15T13:56:41;5.43;;;1.88;;
73642;SDS011;61938;48.652;9.292;2022-10-15T13:59:14;3.67;;;1.92;;
73642;SDS011;61938;48.652;9.292;2022-10-15T14:01:48;9.93;;;1.67;;
73642;SDS011;61938;48.652;9.292;2022-10-15T14:04:17;4.93;;;1.13;;
73642;SDS011;61938;48.652;9.292;2022-10-15T14:06:52;3.22;;;1.00;;
73642;SDS011;61938;48.652;9.292;2022-10-15T14:09:41;3.67;;;1.02;;
73642;SDS011;61938;48.652;9.292;2022-10-15T14:12:06;16.98;;;2.00;;
73642;SDS011;61938;48.652;9.292;2022-10-15T14:14:38;5.57;;;3.40;;
73642;SDS011;61938;48.652;9.292;2022-10-15T14:17:12;18.58;;;9.35;;
73642;SDS011;61938;48.652;9.292;2022-10-15T14:19:49;12.02;;;6.97;;
73642;SDS011;61938;48.652;9.292;2022-10-15T14:22:21;8.35;;;2.10;;
73642;SDS011;61938;48.652;9.292;2022-10-15T14:24:51;10.23;;;1.83;;
73642;SDS011;61938;48.652;9.292;2022-10-15T14:27:22;2.97;;;0.88;;
73642;SDS011;61938;48.652;9.292;2022-10-15T14:29:50;6.68;;;3.83;;
73642;SDS011;61938;48.652;9.292;2022-10-15T14:32:22;10.55;;;3.58;;
73642;SDS011;61938;48.652;9.292;2022-10-15T14:34:53;4.53;;;2.70;;
73642;SDS011;61938;48.652;9.292;2022-10-15T14:42:33;3.47;;;1.40;;
73642;SDS011;61938;48.652;9.292;2022-10-15T14:45:20;2.25;;;1.20;;
73642;SDS011;61938;48.652;9.292;2022-10-15T14:47:55;5.93;;;1.10;;
73642;SDS011;61938;48.652;9.292;2022-10-15T14:50:27;2.05;;;1.10;;
73642;SDS011;61938;48.652;9.292;2022-10-15T14:52:55;3.50;;;1.90;;
73642;SDS011;61938;48.652;9.292;2022-10-15T14:55:57;5.93;;;3.45;;
73642;SDS011;61938;48.652;9.292;2022-10-15T14:58:18;11.80;;;6.70;;
73642;SDS011;61938;48.652;9.292;2022-10-15T15:00:46;15.27;;;6.07;;
73642;SDS011;61938;48.652;9.292;2022-10-15T15:03:20;8.98;;;4.63;;
73642;SDS011;61938;48.652;9.292;2022-10-15T15:05:51;12.10;;;5.15;;
73642;SDS011;61938;48.652;9.292;2022-10-15T15:08:21;6.03;;;4.00;;
73642;SDS011;61938;48.652;9.292;2022-10-15T15:10:48;4.50;;;2.60;;
73642;SDS011;61938;48.652;9.292;2022-10-15T15:13:25;4.53;;;1.48;;
73642;SDS011;61938;48.652;9.292;2022-10-15T15:15:51;1.70;;;1.27;;
73642;SDS011;61938;48.652;9.292;2022-10-15T15:18:17;5.75;;;1.48;;
73642;SDS011;61938;48.652;9.292;2022-10-15T15:20:43;2.80;;;1.45;;
73642;SDS011;61938;48.652;9.292;2022-10-15T15:23:13;3.40;;;1.38;;
73642;SDS011;61938;48.652;9.292;2022-10-15T15:25:42;3.33;;;1.63;;
73642;SDS011;61938;48.652;9.292;2022-10-15T15:28:10;4.63;;;1.33;;
73642;SDS011;61938;48.652;9.292;2022-10-15T15:30:39;4.15;;;1.25;;
73642;SDS011;61938;48.652;9.292;2022-10-15T15:33:10;5.50;;;1.10;;
73642;SDS011;61938;48.652;9.292;2022-10-15T15:35:44;2.00;;;0.90;;
73642;SDS011;61938;48.652;9.292;2022-10-15T15:38:17;1.48;;;0.93;;
73642;SDS011;61938;48.652;9.292;2022-10-15T15:40:43;2.63;;;1.10;;
73642;SDS011;61938;48.652;9.292;2022-10-15T15:43:11;2.30;;;1.10;;
73642;SDS011;61938;48.652;9.292;2022-10-15T15:45:38;2.78;;;0.90;;
73642;SDS011;61938;48.652;9.292;2022-10-15T15:48:04;1.85;;;1.08;;
73642;SDS011;61938;48.652;9.292;2022-10-15T15:50:29;3.67;;;1.02;;
73642;SDS011;61938;48.652;9.292;2022-10-15T15:52:55;11.10;;;1.67;;
73642;SDS011;61938;48.652;9.292;2022-10-15T15:55:21;6.25;;;1.20;;
73642;SDS011;61938;48.652;9.292;2022-10-15T15:57:47;2.78;;;1.00;;
73642;SDS011;61938;48.652;9.292;2022-10-15T16:00:12;2.30;;;1.05;;
73642;SDS011;61938;48.652;9.292;2022-10-15T16:02:39;3.92;;;1.50;;
73642;SDS011;61938;48.652;9.292;2022-10-15T16:05:05;4.13;;;1.80;;
73642;SDS011;61938;48.652;9.292;2022-10-15T16:07:32;3.40;;;1.50;;
73642;SDS011;61938;48.652;9.292;2022-10-15T16:09:58;3.15;;;1.58;;
73642;SDS011;61938;48.652;9.292;2022-10-15T16:12:23;5.55;;;1.40;;
73642;SDS011;61938;48.652;9.292;2022-10-15T16:14:49;5.00;;;1.42;;
73642;SDS011;61938;48.652;9.292;2022-10-15T16:17:14;2.08;;;1.15;;
73642;SDS011;61938;48.652;9.292;2022-10-15T16:19:41;3.90;;;1.20;;
73642;SDS011;61938;48.652;9.292;2022-10-15T16:22:07;3.92;;;1.33;;
73642;SDS011;61938;48.652;9.292;2022-10-15T16:24:32;2.03;;;1.38;;
73642;SDS011;61938;48.652;9.292;2022-10-15T16:26:58;6.03;;;1.38;;